Create Tblcommutelog Verified Points Advance Search
| # | Trip ID | Id Commuter | Trip Date | Trip Num | Current Lat | Current Lng | Delta Distance | Current Time | Activity | Activity Confidence | Current Speed | |
|---|---|---|---|---|---|---|---|---|---|---|---|---|
| 72421 | 250820_788267_16656854_1806 | 788267 | (not set) | (not set) | 39.016989585122 | -76.765675159794 | 23.5512 | 2025-08-20 18:37:05 | in_vehicle | 100 | 15.226157161122 | |
| 72422 | 250820_785111_16653191_1754 | 785111 | (not set) | (not set) | 39.034873050793 | -77.106485969377 | 6.5 | 2025-08-20 18:37:36 | unknown | 100 | 4.7743792859889 | |
| 72423 | 250820_772317_16639583_1814 | 772317 | (not set) | (not set) | 38.926266183573 | -77.046955443442 | 3.3617 | 2025-08-20 18:37:55 | on_bicycle | 100 | 2.1815515838601 | |
| 72424 | 250820_781052_16648727_1656 | 781052 | (not set) | (not set) | 39.218105058203 | -77.297017308838 | 33.1365 | 2025-08-20 18:38:13 | in_vehicle | 100 | 6.665355351507 | |
| 72425 | 250820_788267_16656854_1806 | 788267 | (not set) | (not set) | 38.998662319166 | -76.795214965766 | 25.5884 | 2025-08-20 18:38:37 | in_vehicle | 100 | 16.920435952685 | |
| 72426 | 250820_788267_16656854_1807 | 788267 | (not set) | (not set) | 38.993805162995 | -76.804279912532 | 26.1803 | 2025-08-20 18:39:02 | in_vehicle | 100 | 17.157366759949 | |
| 72427 | 250820_788267_16656854_1806 | 788267 | (not set) | (not set) | 38.988995532679 | -76.812935799929 | 26.7525 | 2025-08-20 18:39:26 | in_vehicle | 100 | 17.725106618863 | |
| 72428 | 250820_748111_16614129_1754 | 748111 | (not set) | (not set) | 38.957121325961 | -77.360283505991 | 16.6811 | 2025-08-20 18:39:54 | on_foot | 100 | 0.5498582885549 | |
| 72429 | 250820_788267_16656854_1806 | 788267 | (not set) | (not set) | 38.977261205635 | -76.83536697859 | 28.2111 | 2025-08-20 18:40:25 | in_vehicle | 100 | 17.10819244146 | |
| 72430 | 250820_772317_16639583_1814 | 772317 | (not set) | (not set) | 38.932715575771 | -77.050393515683 | 4.1012 | 2025-08-20 18:41:05 | on_bicycle | 100 | 3.0935116721951 | |
| 72431 | 250820_765830_16632736_1757 | 765830 | (not set) | (not set) | 38.923249675202 | -77.205998652274 | 11.4291 | 2025-08-20 18:41:39 | on_foot | 100 | 0.48727279229662 | |
| 72432 | 250820_788267_16656854_1806 | 788267 | (not set) | (not set) | 38.956095594679 | -76.865336956042 | 30.4159 | 2025-08-20 18:42:06 | in_vehicle | 100 | 9.3744132609726 | |
| 72433 | 250820_772317_16639583_1814 | 772317 | (not set) | (not set) | 38.936517848795 | -77.048152267419 | 4.417 | 2025-08-20 18:42:34 | on_bicycle | 100 | 2.5525941688199 | |
| 72434 | 250820_788267_16656854_1806 | 788267 | (not set) | (not set) | 38.949360957575 | -76.870889434792 | 30.9756 | 2025-08-20 18:43:02 | in_vehicle | 100 | 5.0694251969208 | |
| 72435 | 250820_700992_16654347_1725 | 700992 | (not set) | (not set) | 39.190095157404 | -77.249155440599 | 22.7386 | 2025-08-20 18:43:33 | in_vehicle | 100 | 5.8562142927392 | |
| 72436 | 250820_765830_16632736_1757 | 765830 | (not set) | (not set) | 38.922774187424 | -77.204148837968 | 11.5605 | 2025-08-20 18:44:16 | on_foot | 100 | 0.61691417740306 | |
| 72437 | 250820_785111_16653191_1754 | 785111 | (not set) | (not set) | 39.053722726718 | -77.126007528266 | 8.5312 | 2025-08-20 18:44:57 | unknown | 100 | 4.515096515776 | |
| 72438 | 250820_776618_16644147_1806 | 776618 | (not set) | (not set) | 38.881983173726 | -77.104177390281 | 7.8306 | 2025-08-20 18:45:46 | in_vehicle | 100 | 2.4810678873819 | |
| 72439 | 250820_107574_16653496_1839 | 107574 | (not set) | (not set) | 38.921416757747 | -76.995749155037 | 1.648 | 2025-08-20 18:46:15 | in_vehicle | 100 | -0.44703925898772 | |
| 72440 | 250820_772317_16639583_1814 | 772317 | (not set) | (not set) | 38.940857905022 | -77.054466299744 | 4.9901 | 2025-08-20 18:46:55 | on_bicycle | 100 | 0.97007519200336 |